createdAt,value
2019-05-16T00:00:19.895Z,0.00
2019-05-16T00:01:19.894Z,0.00
2019-05-16T00:02:19.890Z,0.00
2019-05-16T00:03:19.883Z,0.00
2019-05-16T00:04:19.882Z,0.00
2019-05-16T00:05:19.876Z,0.00
2019-05-16T00:06:19.872Z,0.00
2019-05-16T00:07:19.868Z,0.00
2019-05-16T00:08:19.865Z,0.00
2019-05-16T00:09:19.864Z,0.00
2019-05-16T00:10:19.855Z,0.00
2019-05-16T00:11:19.853Z,0.00
2019-05-16T00:12:19.849Z,0.00
2019-05-16T00:13:19.846Z,0.00
2019-05-16T00:14:19.841Z,0.00
2019-05-16T00:15:19.839Z,0.00
2019-05-16T00:16:19.834Z,0.00
2019-05-16T00:17:19.834Z,0.00
2019-05-16T00:18:19.827Z,0.00
2019-05-16T00:19:19.836Z,0.00
2019-05-16T00:20:19.831Z,0.00
2019-05-16T00:21:19.818Z,0.00
2019-05-16T00:22:19.811Z,0.00
2019-05-16T00:23:19.809Z,0.00
2019-05-16T00:24:19.802Z,0.00
2019-05-16T00:25:19.799Z,0.00
2019-05-16T00:26:19.915Z,0.00
2019-05-16T00:27:19.790Z,0.00
2019-05-16T00:28:19.791Z,0.00
2019-05-16T00:29:19.785Z,0.00
2019-05-16T00:30:19.780Z,0.00
2019-05-16T00:31:19.775Z,0.00
2019-05-16T00:32:19.772Z,0.00
2019-05-16T00:33:19.773Z,0.00
2019-05-16T00:34:19.766Z,0.00
2019-05-16T00:35:19.760Z,0.00
2019-05-16T00:36:19.758Z,0.00
2019-05-16T00:37:22.953Z,0.00
2019-05-16T00:38:19.749Z,0.00
2019-05-16T00:39:19.745Z,0.00
2019-05-16T00:40:19.742Z,0.00
2019-05-16T00:41:19.738Z,0.00
2019-05-16T00:42:19.732Z,0.00
2019-05-16T00:43:19.728Z,0.00
2019-05-16T00:44:19.725Z,0.00
2019-05-16T00:45:19.721Z,0.00
2019-05-16T00:46:20.249Z,0.00
2019-05-16T00:47:19.715Z,0.00
2019-05-16T00:48:19.709Z,0.00
2019-05-16T00:49:19.707Z,0.00
2019-05-16T00:50:19.703Z,0.00
2019-05-16T00:51:19.697Z,0.00
2019-05-16T00:52:19.696Z,0.00
2019-05-16T00:53:19.690Z,0.00
2019-05-16T00:54:19.690Z,0.00
2019-05-16T00:55:19.683Z,0.00
2019-05-16T00:56:19.682Z,0.00
2019-05-16T00:57:19.675Z,0.00
2019-05-16T00:58:19.670Z,0.00
2019-05-16T00:59:19.665Z,0.00
2019-05-16T01:00:19.663Z,0.00
2019-05-16T01:01:19.659Z,0.00
2019-05-16T01:02:19.657Z,0.00
2019-05-16T01:03:20.192Z,0.00
2019-05-16T01:04:19.647Z,0.00
2019-05-16T01:05:19.644Z,0.00
2019-05-16T01:06:22.892Z,0.00
2019-05-16T01:07:19.635Z,0.00
2019-05-16T01:08:19.631Z,0.00
2019-05-16T01:09:19.627Z,0.00
2019-05-16T01:10:19.622Z,0.00
2019-05-16T01:11:19.619Z,0.00
2019-05-16T01:12:19.616Z,0.00
2019-05-16T01:13:19.613Z,0.00
2019-05-16T01:14:19.607Z,0.00
2019-05-16T01:15:19.602Z,0.00
2019-05-16T01:16:19.600Z,0.00
2019-05-16T01:17:19.595Z,0.00
2019-05-16T01:18:19.597Z,0.00
2019-05-16T01:19:19.587Z,0.00
2019-05-16T01:20:19.586Z,0.00
2019-05-16T01:21:19.578Z,0.00
2019-05-16T01:22:19.575Z,0.00
2019-05-16T01:23:19.571Z,0.00
2019-05-16T01:24:19.567Z,0.00
2019-05-16T01:25:19.682Z,0.00
2019-05-16T01:26:19.559Z,0.00
2019-05-16T01:27:19.557Z,0.00
2019-05-16T01:28:19.560Z,0.00
2019-05-16T01:29:19.562Z,0.00
2019-05-16T01:30:19.543Z,0.00
2019-05-16T01:31:19.540Z,0.00
2019-05-16T01:32:19.536Z,0.00
2019-05-16T01:33:19.544Z,0.00
2019-05-16T01:34:19.527Z,0.00
2019-05-16T01:35:19.522Z,0.00
2019-05-16T01:36:33.036Z,0.00
2019-05-16T01:37:19.521Z,0.00
2019-05-16T01:38:19.512Z,0.00
2019-05-16T01:39:19.507Z,0.00
2019-05-16T01:40:19.504Z,0.00
2019-05-16T01:41:19.501Z,0.00
2019-05-16T01:42:19.496Z,0.00
2019-05-16T01:43:19.491Z,0.00
2019-05-16T01:44:19.490Z,0.00
2019-05-16T01:45:19.485Z,0.00
2019-05-16T01:46:19.480Z,0.00
2019-05-16T01:47:19.475Z,0.00
2019-05-16T01:48:19.549Z,0.00
2019-05-16T01:49:19.469Z,0.00
2019-05-16T01:50:19.472Z,0.00
2019-05-16T01:51:19.459Z,0.00
2019-05-16T01:52:19.456Z,0.00
2019-05-16T01:53:19.454Z,0.00
2019-05-16T01:54:19.452Z,0.00
2019-05-16T01:55:19.448Z,0.00
2019-05-16T01:56:19.440Z,0.00
2019-05-16T01:57:19.436Z,0.00
2019-05-16T01:58:20.288Z,0.00
2019-05-16T01:59:19.428Z,0.00
2019-05-16T02:00:25.110Z,0.00
2019-05-16T02:01:19.420Z,0.00
2019-05-16T02:02:19.416Z,0.00
2019-05-16T02:03:19.417Z,0.00
2019-05-16T02:04:19.408Z,0.00
2019-05-16T02:05:19.404Z,0.00
2019-05-16T02:06:19.399Z,0.00
2019-05-16T02:07:19.397Z,0.00
2019-05-16T02:08:19.393Z,0.00
2019-05-16T02:09:19.390Z,0.00
2019-05-16T02:10:19.386Z,0.00
2019-05-16T02:11:19.381Z,0.00
2019-05-16T02:12:19.377Z,0.00
2019-05-16T02:13:19.374Z,0.00
2019-05-16T02:14:19.368Z,0.00
2019-05-16T02:15:19.366Z,0.00
2019-05-16T02:16:19.364Z,0.00
2019-05-16T02:17:19.357Z,0.00
2019-05-16T02:18:19.352Z,0.00
2019-05-16T02:19:19.349Z,0.00
2019-05-16T02:20:19.345Z,0.00
2019-05-16T02:21:19.342Z,0.00
2019-05-16T02:22:19.336Z,0.00
2019-05-16T02:23:19.343Z,0.00
2019-05-16T02:24:19.331Z,0.00
2019-05-16T02:25:19.326Z,0.00
2019-05-16T02:26:19.388Z,0.00
2019-05-16T02:27:19.317Z,0.00
2019-05-16T02:28:21.157Z,0.00
2019-05-16T02:29:20.509Z,0.00
2019-05-16T02:30:21.659Z,0.00
2019-05-16T02:31:22.455Z,0.00
2019-05-16T02:32:22.314Z,0.00
2019-05-16T02:33:21.494Z,0.00
2019-05-16T02:34:21.812Z,0.00
2019-05-16T02:35:21.016Z,0.00
2019-05-16T02:36:21.578Z,0.00
2019-05-16T02:37:25.917Z,0.00
2019-05-16T02:38:21.127Z,0.00
2019-05-16T02:39:21.205Z,0.00
2019-05-16T02:40:21.023Z,0.00
2019-05-16T02:41:21.624Z,0.00
2019-05-16T02:42:21.277Z,0.00
2019-05-16T02:43:21.913Z,0.00
2019-05-16T02:44:24.115Z,0.00
2019-05-16T02:45:23.914Z,0.00
2019-05-16T02:46:21.910Z,0.00
2019-05-16T02:47:21.110Z,0.00
2019-05-16T02:48:21.372Z,0.00
2019-05-16T02:49:21.570Z,0.00
2019-05-16T02:50:21.862Z,0.00
2019-05-16T02:51:21.250Z,0.00
2019-05-16T02:52:21.758Z,0.00
2019-05-16T02:53:21.906Z,0.00
2019-05-16T02:54:21.859Z,0.00
2019-05-16T02:55:21.537Z,0.00
2019-05-16T02:56:21.225Z,0.00
2019-05-16T02:57:21.184Z,0.00
2019-05-16T02:58:22.845Z,0.00
2019-05-16T02:59:20.642Z,0.00
2019-05-16T03:00:20.894Z,0.00
2019-05-16T03:01:21.692Z,0.00
2019-05-16T03:02:20.512Z,0.00
2019-05-16T03:03:21.458Z,0.00
2019-05-16T03:04:21.336Z,0.00
2019-05-16T03:05:20.807Z,0.00
2019-05-16T03:06:21.079Z,0.00
2019-05-16T03:07:36.398Z,0.00
2019-05-16T03:08:21.012Z,0.00
2019-05-16T03:09:21.411Z,0.00
2019-05-16T03:10:20.344Z,0.00
2019-05-16T03:11:21.044Z,0.00
2019-05-16T03:12:21.140Z,0.00
2019-05-16T03:13:21.914Z,0.00
2019-05-16T03:14:21.255Z,0.00
2019-05-16T03:15:21.868Z,0.00
2019-05-16T03:16:22.132Z,0.00
2019-05-16T03:17:21.459Z,0.00
2019-05-16T03:18:21.503Z,0.00
2019-05-16T03:19:21.408Z,0.00
2019-05-16T03:20:21.170Z,0.00
2019-05-16T03:21:21.571Z,0.00
2019-05-16T03:22:21.913Z,0.00
2019-05-16T03:23:21.694Z,0.00
2019-05-16T03:24:20.590Z,0.00
2019-05-16T03:25:21.994Z,0.00
2019-05-16T03:26:20.957Z,0.00
2019-05-16T03:27:21.579Z,0.00
2019-05-16T03:28:22.231Z,0.00
2019-05-16T03:29:21.754Z,0.00
2019-05-16T03:30:23.856Z,0.00
2019-05-16T03:31:23.879Z,0.00
2019-05-16T03:32:23.562Z,0.00
2019-05-16T03:33:26.089Z,0.00
2019-05-16T03:34:24.874Z,5.63
2019-05-16T03:35:23.949Z,5.63
2019-05-16T03:36:24.362Z,5.63
2019-05-16T03:37:24.279Z,5.63
2019-05-16T03:38:21.224Z,5.63
2019-05-16T03:39:21.274Z,5.63
2019-05-16T03:40:21.423Z,5.63
2019-05-16T03:41:21.339Z,5.63
2019-05-16T03:42:20.449Z,5.63
2019-05-16T03:43:21.691Z,5.63
2019-05-16T03:44:21.068Z,5.63
2019-05-16T03:45:21.234Z,5.63
2019-05-16T03:46:21.587Z,5.63
2019-05-16T03:47:21.643Z,5.63
2019-05-16T03:48:21.168Z,5.63
2019-05-16T03:49:21.065Z,5.63
2019-05-16T03:50:21.665Z,5.63
2019-05-16T03:51:21.327Z,11.25
2019-05-16T03:52:20.746Z,11.25
2019-05-16T03:53:21.314Z,11.25
2019-05-16T03:54:21.181Z,11.25
2019-05-16T03:55:21.309Z,11.25
2019-05-16T03:56:21.465Z,11.25
2019-05-16T03:57:21.207Z,16.88
2019-05-16T03:58:22.516Z,16.88
2019-05-16T03:59:21.491Z,16.88
2019-05-16T04:00:21.197Z,16.88
2019-05-16T04:01:20.986Z,22.50
2019-05-16T04:02:21.370Z,22.50
2019-05-16T04:03:21.247Z,22.50
2019-05-16T04:04:20.872Z,22.50
2019-05-16T04:05:21.148Z,22.50
2019-05-16T04:06:21.864Z,22.50
2019-05-16T04:07:21.512Z,22.50
2019-05-16T04:08:23.835Z,22.50
2019-05-16T04:09:21.046Z,22.50
2019-05-16T04:10:21.366Z,22.50
2019-05-16T04:11:23.092Z,22.50
2019-05-16T04:12:21.154Z,22.50
2019-05-16T04:13:21.309Z,22.50
2019-05-16T04:14:21.432Z,22.50
2019-05-16T04:15:21.486Z,16.88
2019-05-16T04:16:20.923Z,16.88
2019-05-16T04:17:21.152Z,16.88
2019-05-16T04:18:21.567Z,16.88
2019-05-16T04:19:21.072Z,16.88
2019-05-16T04:20:21.252Z,16.88
2019-05-16T04:21:21.591Z,16.88
2019-05-16T04:22:21.500Z,16.88
2019-05-16T04:23:20.601Z,16.88
2019-05-16T04:24:21.599Z,16.88
2019-05-16T04:25:21.334Z,16.88
2019-05-16T04:26:21.552Z,16.88
2019-05-16T04:27:21.341Z,16.88
2019-05-16T04:28:22.049Z,16.88
2019-05-16T04:29:20.729Z,16.88
2019-05-16T04:30:21.704Z,16.88
2019-05-16T04:31:21.733Z,16.88
2019-05-16T04:32:20.933Z,16.88
2019-05-16T04:33:21.779Z,16.88
2019-05-16T04:34:20.637Z,16.88
2019-05-16T04:35:21.544Z,16.88
2019-05-16T04:36:21.238Z,16.88
2019-05-16T04:37:21.490Z,16.88
2019-05-16T04:38:31.527Z,16.88
2019-05-16T04:39:20.845Z,22.50
2019-05-16T04:40:21.663Z,22.50
2019-05-16T04:41:21.103Z,22.50
2019-05-16T04:42:21.374Z,28.13
2019-05-16T04:43:21.565Z,28.13
2019-05-16T04:44:21.072Z,33.75
2019-05-16T04:45:21.063Z,39.38
2019-05-16T04:46:21.469Z,39.38
2019-05-16T04:47:21.037Z,45.00
2019-05-16T04:48:21.804Z,50.63
2019-05-16T04:49:21.239Z,50.63
2019-05-16T04:50:21.097Z,56.25
2019-05-16T04:51:21.585Z,56.25
2019-05-16T04:52:21.492Z,56.25
2019-05-16T04:53:20.733Z,61.88
2019-05-16T04:54:21.328Z,61.88
2019-05-16T04:55:21.037Z,61.88
2019-05-16T04:56:21.332Z,61.88
2019-05-16T04:57:20.933Z,67.50
2019-05-16T04:58:22.975Z,67.50
2019-05-16T04:59:20.817Z,67.50
2019-05-16T05:00:21.186Z,67.50
2019-05-16T05:01:21.176Z,67.50
2019-05-16T05:02:21.196Z,67.50
2019-05-16T05:03:20.902Z,61.88
2019-05-16T05:04:20.896Z,61.88
2019-05-16T05:05:21.542Z,56.25
2019-05-16T05:06:20.836Z,50.63
2019-05-16T05:07:20.698Z,50.63
2019-05-16T05:08:21.399Z,50.63
2019-05-16T05:09:20.907Z,45.00
2019-05-16T05:10:20.726Z,45.00
2019-05-16T05:11:21.279Z,39.38
2019-05-16T05:12:20.766Z,39.38
2019-05-16T05:13:21.638Z,33.75
2019-05-16T05:14:21.016Z,33.75
2019-05-16T05:15:21.052Z,33.75
2019-05-16T05:16:20.266Z,39.38
2019-05-16T05:17:20.866Z,39.38
2019-05-16T05:18:21.397Z,45.00
2019-05-16T05:19:20.245Z,50.63
2019-05-16T05:20:20.849Z,50.63
2019-05-16T05:21:20.925Z,56.25
2019-05-16T05:22:19.904Z,56.25
2019-05-16T05:23:20.710Z,56.25
2019-05-16T05:24:19.695Z,61.88
2019-05-16T05:25:20.424Z,67.50
2019-05-16T05:26:19.999Z,73.13
2019-05-16T05:27:19.728Z,84.38
2019-05-16T05:28:20.807Z,95.63
2019-05-16T05:29:20.044Z,106.88
2019-05-16T05:30:19.776Z,112.50
2019-05-16T05:31:23.881Z,123.75
2019-05-16T05:32:20.036Z,135.00
2019-05-16T05:33:20.615Z,135.00
2019-05-16T05:34:19.905Z,140.63
2019-05-16T05:35:20.612Z,146.25
2019-05-16T05:36:20.825Z,151.88
2019-05-16T05:37:20.392Z,140.63
2019-05-16T05:38:20.839Z,135.00
2019-05-16T05:39:20.041Z,135.00
2019-05-16T05:40:20.074Z,135.00
2019-05-16T05:41:19.881Z,135.00
2019-05-16T05:42:19.933Z,135.00
2019-05-16T05:43:21.143Z,135.00
2019-05-16T05:44:20.325Z,146.25
2019-05-16T05:45:20.108Z,168.75
2019-05-16T05:46:20.429Z,185.63
2019-05-16T05:47:20.033Z,208.13
2019-05-16T05:48:21.176Z,213.75
2019-05-16T05:49:20.363Z,236.25
2019-05-16T05:50:20.164Z,253.13
2019-05-16T05:51:20.585Z,270.00
2019-05-16T05:52:20.616Z,281.25
2019-05-16T05:53:20.627Z,286.88
2019-05-16T05:54:20.197Z,303.75
2019-05-16T05:55:20.096Z,315.00
2019-05-16T05:56:19.773Z,315.00
2019-05-16T05:57:20.724Z,303.75
2019-05-16T05:58:20.384Z,286.88
2019-05-16T05:59:20.179Z,270.00
2019-05-16T06:00:20.824Z,258.75
2019-05-16T06:01:20.615Z,264.38
2019-05-16T06:02:20.153Z,270.00
2019-05-16T06:03:21.626Z,281.25
2019-05-16T06:04:19.803Z,298.13
2019-05-16T06:05:20.219Z,315.00
2019-05-16T06:06:20.818Z,315.00
2019-05-16T06:07:20.424Z,315.00
2019-05-16T06:08:20.142Z,326.25
2019-05-16T06:09:26.320Z,343.13
2019-05-16T06:10:19.925Z,360.00
2019-05-16T06:11:20.308Z,376.88
2019-05-16T06:12:21.047Z,376.88
2019-05-16T06:13:20.666Z,371.25
2019-05-16T06:14:21.010Z,354.38
2019-05-16T06:15:20.089Z,343.13
2019-05-16T06:16:20.374Z,315.00
2019-05-16T06:17:20.089Z,292.50
2019-05-16T06:18:19.828Z,270.00
2019-05-16T06:19:20.053Z,247.50
2019-05-16T06:20:20.146Z,230.63
2019-05-16T06:21:20.295Z,219.38
2019-05-16T06:22:20.401Z,213.75
2019-05-16T06:23:20.708Z,213.75
2019-05-16T06:24:20.145Z,219.38
2019-05-16T06:25:22.198Z,225.00
2019-05-16T06:26:20.350Z,230.63
2019-05-16T06:27:20.673Z,236.25
2019-05-16T06:28:20.564Z,225.00
2019-05-16T06:29:20.222Z,202.50
2019-05-16T06:30:20.611Z,191.25
2019-05-16T06:31:21.763Z,185.63
2019-05-16T06:32:19.831Z,180.00
2019-05-16T06:33:19.988Z,185.63
2019-05-16T06:34:20.756Z,185.63
2019-05-16T06:35:20.099Z,191.25
2019-05-16T06:36:20.322Z,191.25
2019-05-16T06:37:20.322Z,191.25
2019-05-16T06:38:20.641Z,196.88
2019-05-16T06:39:19.947Z,202.50
2019-05-16T06:40:20.122Z,208.13
2019-05-16T06:41:19.925Z,219.38
2019-05-16T06:42:20.457Z,241.88
2019-05-16T06:43:20.264Z,241.88
2019-05-16T06:44:20.199Z,253.13
2019-05-16T06:45:20.319Z,253.13
2019-05-16T06:46:20.104Z,247.50
2019-05-16T06:47:20.717Z,241.88
2019-05-16T06:48:20.795Z,236.25
2019-05-16T06:49:19.678Z,236.25
2019-05-16T06:50:20.591Z,236.25
2019-05-16T06:51:20.075Z,236.25
2019-05-16T06:52:19.722Z,230.63
2019-05-16T06:53:20.705Z,230.63
2019-05-16T06:54:20.606Z,230.63
2019-05-16T06:55:20.307Z,230.63
2019-05-16T06:56:20.052Z,241.88
2019-05-16T06:57:20.484Z,258.75
2019-05-16T06:58:21.770Z,281.25
2019-05-16T06:59:20.173Z,281.25
2019-05-16T07:00:20.736Z,286.88
2019-05-16T07:01:20.647Z,315.00
2019-05-16T07:02:27.615Z,337.50
2019-05-16T07:03:20.526Z,360.00
2019-05-16T07:04:20.087Z,376.88
2019-05-16T07:05:20.541Z,399.38
2019-05-16T07:06:35.990Z,410.63
2019-05-16T07:07:20.322Z,416.25
2019-05-16T07:08:20.308Z,410.63
2019-05-16T07:09:20.521Z,371.25
2019-05-16T07:10:20.171Z,320.63
2019-05-16T07:11:20.014Z,275.63
2019-05-16T07:12:20.138Z,270.00
2019-05-16T07:13:19.690Z,258.75
2019-05-16T07:14:22.525Z,258.75
2019-05-16T07:15:20.447Z,286.88
2019-05-16T07:16:20.427Z,337.50
2019-05-16T07:17:20.061Z,354.38
2019-05-16T07:18:20.446Z,388.13
2019-05-16T07:19:18.137Z,416.25
2019-05-16T07:20:20.725Z,438.75
2019-05-16T07:21:19.974Z,455.63
2019-05-16T07:22:20.429Z,450.00
2019-05-16T07:23:20.641Z,450.00
2019-05-16T07:24:19.873Z,483.75
2019-05-16T07:25:20.602Z,545.63
2019-05-16T07:26:20.352Z,523.13
2019-05-16T07:27:18.131Z,461.25
2019-05-16T07:28:20.549Z,450.00
2019-05-16T07:29:20.070Z,478.13
2019-05-16T07:30:19.966Z,500.63
2019-05-16T07:31:19.896Z,472.50
2019-05-16T07:32:19.856Z,461.25
2019-05-16T07:33:20.715Z,483.75
2019-05-16T07:34:20.478Z,517.50
2019-05-16T07:35:20.270Z,511.88
2019-05-16T07:36:20.320Z,511.88
2019-05-16T07:37:20.009Z,495.00
2019-05-16T07:38:20.035Z,438.75
2019-05-16T07:39:19.959Z,416.25
2019-05-16T07:40:23.688Z,433.13
2019-05-16T07:41:20.408Z,427.50
2019-05-16T07:42:19.958Z,388.13
2019-05-16T07:43:20.152Z,365.63
2019-05-16T07:44:18.066Z,348.75
2019-05-16T07:45:20.207Z,343.13
2019-05-16T07:46:20.376Z,360.00
2019-05-16T07:47:20.136Z,399.38
2019-05-16T07:48:20.890Z,421.88
2019-05-16T07:49:19.654Z,433.13
2019-05-16T07:50:20.085Z,500.63
2019-05-16T07:51:20.384Z,556.88
2019-05-16T07:52:20.643Z,478.13
2019-05-16T07:53:18.046Z,433.13
2019-05-16T07:54:18.040Z,438.75
2019-05-16T07:55:20.593Z,472.50
2019-05-16T07:56:20.201Z,511.88
2019-05-16T07:57:20.488Z,585.00
2019-05-16T07:58:21.197Z,601.88
2019-05-16T07:59:20.117Z,540.00
2019-05-16T08:00:21.234Z,478.13
2019-05-16T08:01:19.901Z,427.50
2019-05-16T08:02:20.612Z,388.13
2019-05-16T08:03:19.899Z,365.63
2019-05-16T08:04:19.867Z,354.38
2019-05-16T08:05:20.771Z,388.13
2019-05-16T08:06:19.946Z,410.63
2019-05-16T08:07:19.876Z,433.13
2019-05-16T08:08:23.289Z,472.50
2019-05-16T08:09:18.010Z,511.88
2019-05-16T08:10:36.007Z,523.13
2019-05-16T08:11:20.556Z,579.38
2019-05-16T08:12:23.498Z,545.63
2019-05-16T08:13:20.802Z,472.50
2019-05-16T08:14:17.998Z,421.88
2019-05-16T08:15:20.675Z,360.00
2019-05-16T08:16:20.467Z,343.13
2019-05-16T08:17:21.431Z,410.63
2019-05-16T08:18:20.948Z,450.00
2019-05-16T08:19:19.996Z,489.38
2019-05-16T08:20:17.985Z,511.88
2019-05-16T08:21:20.127Z,568.13
2019-05-16T08:22:17.983Z,568.13
2019-05-16T08:23:19.333Z,540.00
2019-05-16T08:24:20.330Z,517.50
2019-05-16T08:25:20.381Z,517.50
2019-05-16T08:26:21.536Z,534.38
2019-05-16T08:27:20.571Z,540.00
2019-05-16T08:28:20.500Z,545.63
2019-05-16T08:29:17.970Z,601.88
2019-05-16T08:30:20.454Z,658.13
2019-05-16T08:31:20.730Z,686.25
2019-05-16T08:32:22.636Z,686.25
2019-05-16T08:33:21.301Z,708.75
2019-05-16T08:34:20.597Z,703.13
2019-05-16T08:35:20.843Z,669.38
2019-05-16T08:36:20.583Z,720.00
2019-05-16T08:37:33.983Z,781.88
2019-05-16T08:38:21.101Z,849.38
2019-05-16T08:39:17.954Z,956.25
2019-05-16T08:40:21.367Z,928.13
2019-05-16T08:41:21.900Z,939.38
2019-05-16T08:42:20.728Z,1018.13
2019-05-16T08:43:21.410Z,1203.75
2019-05-16T08:44:21.322Z,1102.50
2019-05-16T08:45:20.992Z,1141.88
2019-05-16T08:46:20.564Z,1074.38
2019-05-16T08:47:21.174Z,1125.00
2019-05-16T08:48:22.391Z,1006.88
2019-05-16T08:49:21.890Z,1293.75
2019-05-16T08:50:21.398Z,1411.88
2019-05-16T08:51:21.988Z,1158.75
2019-05-16T08:52:22.235Z,1057.50
2019-05-16T08:53:17.943Z,995.63
2019-05-16T08:54:17.942Z,1023.75
2019-05-16T08:55:21.495Z,1046.25
2019-05-16T08:56:17.943Z,1282.50
2019-05-16T08:58:17.943Z,1310.63
2019-05-16T08:59:21.200Z,1350.00
2019-05-16T09:00:21.446Z,1400.63
2019-05-16T09:01:21.553Z,2351.25
2019-05-16T09:02:22.012Z,2975.63
2019-05-16T09:03:21.841Z,2188.13
2019-05-16T09:04:17.949Z,1856.25
2019-05-16T09:05:22.308Z,2047.50
2019-05-16T09:06:17.949Z,1395.00
2019-05-16T09:07:22.398Z,1209.38
2019-05-16T09:08:18.002Z,1057.50
2019-05-16T09:10:26.158Z,1586.25
2019-05-16T09:10:31.974Z,1811.25
2019-05-16T09:11:31.241Z,765.00
2019-05-16T09:12:17.961Z,585.00
2019-05-16T09:13:17.963Z,624.38
2019-05-16T09:14:17.973Z,714.38
2019-05-16T09:15:17.969Z,787.50
2019-05-16T09:16:18.363Z,1125.00
2019-05-16T09:17:18.138Z,1001.25
2019-05-16T09:18:18.094Z,916.88
2019-05-16T09:19:17.979Z,1018.13
2019-05-16T09:20:17.981Z,1333.13
2019-05-16T09:21:18.398Z,1608.75
2019-05-16T09:22:18.170Z,1738.13
2019-05-16T09:23:18.119Z,1659.38
2019-05-16T09:24:18.174Z,1220.63
2019-05-16T09:25:18.718Z,1265.63
2019-05-16T09:26:26.844Z,1113.75
2019-05-16T09:27:18.151Z,1102.50
2019-05-16T09:28:17.999Z,2019.38
2019-05-16T09:29:17.999Z,2323.13
2019-05-16T09:30:17.999Z,1490.63
2019-05-16T09:31:18.118Z,1321.88
2019-05-16T09:32:21.401Z,1248.75
2019-05-16T09:33:18.255Z,2615.63
2019-05-16T09:34:18.051Z,2671.88
2019-05-16T09:35:18.015Z,2323.13
2019-05-16T09:36:18.015Z,2379.38
2019-05-16T09:37:18.124Z,2745.00
2019-05-16T09:38:23.119Z,2728.13
2019-05-16T09:39:18.028Z,2610.00
2019-05-16T09:40:18.027Z,2328.75
2019-05-16T09:41:18.033Z,2205.00
2019-05-16T09:42:18.035Z,2075.63
2019-05-16T09:43:18.170Z,1940.63
2019-05-16T09:44:18.568Z,1901.25
2019-05-16T09:45:18.047Z,1732.50
2019-05-16T09:46:18.199Z,1518.75
2019-05-16T09:47:18.056Z,1102.50
2019-05-16T09:48:19.054Z,911.25
2019-05-16T09:49:24.129Z,1271.25
2019-05-16T09:50:18.068Z,826.88
2019-05-16T09:51:21.083Z,765.00
2019-05-16T09:52:18.077Z,866.25
2019-05-16T09:53:18.081Z,1636.88
2019-05-16T09:54:18.085Z,967.50
2019-05-16T09:55:18.089Z,984.38
2019-05-16T09:56:18.095Z,787.50
2019-05-16T09:57:18.100Z,798.75
2019-05-16T09:58:18.475Z,759.38
2019-05-16T09:59:18.106Z,810.00
2019-05-16T10:00:18.112Z,821.25
2019-05-16T10:01:18.116Z,945.00
2019-05-16T10:02:18.118Z,804.38
2019-05-16T10:03:22.327Z,826.88
2019-05-16T10:04:18.124Z,1012.50
2019-05-16T10:05:18.128Z,2233.13
2019-05-16T10:06:19.246Z,939.38
2019-05-16T10:07:18.152Z,860.63
2019-05-16T10:08:18.139Z,1018.13
2019-05-16T10:09:18.150Z,1350.00
2019-05-16T10:10:18.142Z,1231.88
2019-05-16T10:11:18.328Z,1372.50
2019-05-16T10:12:18.631Z,1018.13
2019-05-16T10:13:18.459Z,1226.25
2019-05-16T10:14:18.157Z,922.50
2019-05-16T10:15:18.159Z,1102.50
2019-05-16T10:16:18.165Z,855.00
2019-05-16T10:17:18.170Z,1125.00
2019-05-16T10:18:18.168Z,1046.25
2019-05-16T10:19:18.174Z,888.75
2019-05-16T10:20:18.178Z,765.00
2019-05-16T10:21:20.666Z,883.13
2019-05-16T10:22:18.184Z,1085.63
2019-05-16T10:23:18.272Z,1220.63
2019-05-16T10:24:18.194Z,1023.75
2019-05-16T10:25:19.547Z,900.00
2019-05-16T10:26:19.524Z,939.38
2019-05-16T10:27:18.204Z,939.38
2019-05-16T10:28:20.112Z,1001.25
2019-05-16T10:29:18.657Z,1102.50
2019-05-16T10:30:18.215Z,1293.75
2019-05-16T10:31:18.223Z,1158.75
2019-05-16T10:32:18.225Z,1074.38
2019-05-16T10:33:19.095Z,1006.88
2019-05-16T10:34:18.233Z,804.38
2019-05-16T10:35:18.236Z,686.25
2019-05-16T10:36:21.770Z,607.50
2019-05-16T10:37:18.247Z,540.00
2019-05-16T10:38:18.249Z,500.63
2019-05-16T10:39:18.255Z,472.50
2019-05-16T10:40:18.439Z,461.25
2019-05-16T10:41:18.263Z,500.63
2019-05-16T10:42:28.176Z,534.38
2019-05-16T10:43:18.274Z,472.50
2019-05-16T10:44:18.274Z,444.38
2019-05-16T10:45:18.277Z,461.25
2019-05-16T10:46:18.284Z,478.13
2019-05-16T10:47:18.286Z,540.00
2019-05-16T10:48:18.290Z,624.38
2019-05-16T10:49:32.842Z,697.50
2019-05-16T10:50:18.296Z,776.25
2019-05-16T10:51:18.311Z,832.50
2019-05-16T10:52:18.339Z,877.50
2019-05-16T10:53:50.254Z,826.88
2019-05-16T10:54:18.649Z,804.38
2019-05-16T10:55:18.348Z,731.25
2019-05-16T10:56:18.315Z,663.75
2019-05-16T10:57:18.372Z,714.38
2019-05-16T10:58:33.021Z,793.13
2019-05-16T10:59:50.342Z,821.25
2019-05-16T11:00:34.985Z,843.75
2019-05-16T11:01:26.970Z,753.75
2019-05-16T11:02:18.428Z,765.00
2019-05-16T11:03:18.336Z,821.25
2019-05-16T11:04:28.988Z,883.13
2019-05-16T11:05:29.382Z,922.50
2019-05-16T11:06:25.673Z,855.00
2019-05-16T11:07:18.346Z,804.38
2019-05-16T11:08:18.348Z,781.88
2019-05-16T11:09:18.355Z,748.13
2019-05-16T11:10:18.354Z,680.63
2019-05-16T11:11:19.990Z,630.00
2019-05-16T11:12:20.427Z,562.50
2019-05-16T11:13:20.396Z,495.00
2019-05-16T11:14:18.366Z,506.25
2019-05-16T11:15:18.368Z,590.63
2019-05-16T11:16:18.371Z,590.63
2019-05-16T11:17:19.089Z,506.25
2019-05-16T11:18:18.384Z,438.75
2019-05-16T11:19:24.234Z,399.38
2019-05-16T11:20:20.099Z,343.13
2019-05-16T11:21:19.306Z,326.25
2019-05-16T11:22:18.389Z,309.38
2019-05-16T11:23:22.935Z,270.00
2019-05-16T11:24:18.454Z,247.50
2019-05-16T11:25:25.084Z,230.63
2019-05-16T11:26:18.393Z,225.00
2019-05-16T11:27:18.396Z,219.38
2019-05-16T11:28:18.795Z,213.75
2019-05-16T11:29:18.400Z,213.75
2019-05-16T11:30:18.542Z,219.38
2019-05-16T11:31:18.406Z,225.00
2019-05-16T11:32:18.404Z,225.00
2019-05-16T11:33:18.424Z,230.63
2019-05-16T11:34:18.407Z,230.63
2019-05-16T11:35:18.414Z,230.63
2019-05-16T11:36:18.409Z,241.88
2019-05-16T11:37:18.411Z,253.13
2019-05-16T11:38:18.412Z,270.00
2019-05-16T11:39:18.413Z,270.00
2019-05-16T11:40:18.415Z,264.38
2019-05-16T11:41:18.415Z,270.00
2019-05-16T11:42:18.416Z,275.63
2019-05-16T11:43:21.544Z,275.63
2019-05-16T11:44:18.422Z,286.88
2019-05-16T11:45:18.418Z,309.38
2019-05-16T11:46:18.418Z,326.25
2019-05-16T11:47:18.419Z,309.38
2019-05-16T11:48:18.421Z,258.75
2019-05-16T11:49:18.432Z,213.75
2019-05-16T11:50:18.419Z,208.13
2019-05-16T11:51:18.422Z,202.50
2019-05-16T11:52:18.421Z,191.25
2019-05-16T11:53:18.421Z,185.63
2019-05-16T11:54:18.424Z,185.63
2019-05-16T11:55:18.422Z,185.63
2019-05-16T11:56:18.422Z,196.88
2019-05-16T11:57:18.423Z,196.88
2019-05-16T11:58:18.422Z,208.13
2019-05-16T11:59:18.425Z,213.75
2019-05-16T12:00:18.427Z,230.63
2019-05-16T12:01:18.425Z,253.13
2019-05-16T12:02:18.422Z,281.25
2019-05-16T12:03:18.423Z,320.63
2019-05-16T12:04:18.423Z,365.63
2019-05-16T12:05:18.424Z,393.75
2019-05-16T12:06:18.421Z,399.38
2019-05-16T12:07:19.295Z,393.75
2019-05-16T12:08:18.424Z,388.13
2019-05-16T12:09:18.423Z,382.50
2019-05-16T12:10:18.422Z,376.88
2019-05-16T12:11:18.422Z,371.25
2019-05-16T12:12:20.761Z,371.25
2019-05-16T12:13:28.217Z,371.25
2019-05-16T12:14:18.420Z,371.25
2019-05-16T12:15:20.092Z,382.50
2019-05-16T12:16:18.953Z,405.00
2019-05-16T12:17:18.421Z,433.13
2019-05-16T12:18:18.422Z,455.63
2019-05-16T12:19:18.485Z,472.50
2019-05-16T12:20:18.421Z,500.63
2019-05-16T12:21:18.422Z,523.13
2019-05-16T12:22:18.461Z,551.25
2019-05-16T12:23:18.420Z,607.50
2019-05-16T12:24:31.742Z,635.63
2019-05-16T12:25:18.421Z,697.50
2019-05-16T12:26:18.421Z,748.13
2019-05-16T12:27:18.419Z,776.25
2019-05-16T12:28:18.421Z,736.88
2019-05-16T12:29:18.424Z,669.38
2019-05-16T12:30:18.421Z,624.38
2019-05-16T12:31:18.426Z,641.25
2019-05-16T12:32:18.422Z,658.13
2019-05-16T12:33:18.911Z,663.75
2019-05-16T12:34:18.425Z,669.38
2019-05-16T12:35:18.424Z,680.63
2019-05-16T12:36:18.425Z,669.38
2019-05-16T12:37:18.427Z,630.00
2019-05-16T12:38:18.457Z,562.50
2019-05-16T12:39:18.430Z,500.63
2019-05-16T12:40:18.427Z,506.25
2019-05-16T12:41:18.437Z,540.00
2019-05-16T12:42:18.429Z,585.00
2019-05-16T12:43:18.432Z,618.75
2019-05-16T12:44:18.431Z,630.00